Latest Coastal Weather Observations for Point Perpendicular

IDN60701

Issued at 2:45 pm EST Saturday 2 August 2014 (issued every 10 minutes, with the page automatically refreshed every 10 minutes)

About coastal observations | Map of coastal stations | Coastal observations for NSW | Marine services | Other Formats
Station Details ID: 068151 Name: POINT PERPENDICULAR AWS Lat: -35.09 Lon: 150.80 Height: 85.0 m
Data from the previous 72 hours. | See also: Recent months at Point Perpendicular
Date/Time
EST
Temp

°C
Wind Pressure Rain
since 9am
mm
Weather Cloud Vis
km
Sea
Height
m
Swell
Dir
 
Speed
knots
Gust
knots
hPa Trend Height
m
Period
s
Dir
02/02:30pm 12.4 S 15 25 1026.0 - 0.0 - - - - - - -
02/02:09pm 12.1 S 15 27 1025.7 - 0.0 - - - - - - -
02/02:00pm 12.5 SSW 16 24 1025.6 - 0.0 - - - - - - -
02/01:30pm 12.7 SSW 17 27 1025.4 - 0.0 - - - - - - -
02/01:00pm 12.2 S 17 27 1025.0 - 0.0 - - - - - - -
02/12:49pm 12.0 SSW 17 28 1024.7 - 0.0 - - - - - - -
02/12:30pm 11.8 SSW 15 23 1025.3 - 0.0 - - - - - - -
02/12:00pm 11.7 SSW 14 25 1025.6 - 0.0 - - - - - - -
02/11:52am 11.7 SSW 15 25 1025.6 - 0.0 - - - - - - -
02/11:30am 11.3 SW 16 23 1025.6 - 0.0 - - - - - - -
02/11:00am 10.9 SSW 15 22 1025.3 - 0.0 - - - - - - -
02/10:30am 10.9 SSW 14 21 1025.1 - 0.0 - - - - - - -
02/10:00am 10.7 SW 14 24 1024.8 - 0.0 - - - - - - -
02/09:30am 10.1 WSW 11 15 1024.7 - 0.0 - - - - - - -
02/09:00am 9.0 WSW 11 17 1024.3 - 0.0 - - - - - - -
02/08:30am 8.5 WSW 11 17 1023.8 - 0.0 - - - - - - -
02/08:00am 8.0 W 10 15 1023.1 - 0.0 - - - - - - -
02/07:30am 7.7 W 9 16 1022.2 - 0.0 - - - - - - -
02/07:00am 7.9 W 10 15 1021.4 - 0.0 - - - - - - -
02/06:30am 8.0 W 11 18 1020.9 - 0.0 - - - - - - -
02/06:00am 8.1 W 11 17 1020.2 - 0.0 - - - - - - -
02/05:30am 8.1 W 10 16 1019.5 - 0.0 - - - - - - -
02/05:00am 8.2 W 11 17 1019.1 - 0.0 - - - - - - -
02/04:30am 8.6 W 12 18 1018.4 - 0.0 - - - - - - -
02/04:00am 8.7 W 13 19 1017.7 - 0.0 - - - - - - -
02/03:30am 8.8 W 13 23 1017.4 - 0.0 - - - - - - -
02/03:00am 8.8 W 10 15 1017.1 - 0.0 - - - - - - -
02/02:30am 8.6 W 12 18 1016.4 - 0.0 - - - - - - -
02/02:00am 8.8 WNW 10 17 1016.3 - 0.0 - - - - - - -
02/01:30am 8.7 WNW 12 18 1016.0 - 0.0 - - - - - - -
02/01:00am 8.9 WNW 11 18 1015.6 - 0.0 - - - - - - -
02/12:30am 8.8 WNW 12 17 1015.6 - 0.0 - - - - - - -
02/12:00am 8.9 W 13 18 1015.2 - 0.0 - - - - - - -
 
Date/Time
EST
Temp

°C
Wind Pressure Rain
since 9am
mm
Weather Cloud Vis
km
Sea
Height
m
Swell
Dir
 
Speed
knots
Gust
knots
hPa Trend Height
m
Period
s
Dir
01/11:30pm 8.9 WNW 12 19 1014.7 - 0.0 - - - - - - -
01/11:00pm 8.7 WNW 12 18 1014.5 - 0.0 - - - - - - -
01/10:30pm 8.9 WNW 13 22 1014.3 - 0.0 - - - - - - -
01/10:00pm 9.4 W 10 14 1014.2 - 0.0 - - - - - - -
01/09:30pm 9.4 W 11 17 1013.7 - 0.0 - - - - - - -
01/09:00pm 9.6 W 12 18 1013.2 - 0.0 - - - - - - -
01/08:30pm 9.6 W 13 17 1012.5 - 0.0 - - - - - - -
01/08:00pm 9.6 W 13 22 1011.9 - 0.0 - - - - - - -
01/07:43pm 9.9 W 16 26 1012.5 - 0.0 - - - - - - -
01/07:30pm 9.6 W 10 16 1012.0 - 0.0 - - - - - - -
01/07:00pm 9.9 WNW 12 17 1011.6 - 0.0 - - - - - - -
01/06:30pm 10.5 W 9 16 1011.0 - 0.0 - - - - - - -
01/06:00pm 11.2 W 10 17 1010.9 - 0.0 - - - - - - -
01/05:30pm 11.2 WNW 10 15 1009.6 - 0.0 - - - - - - -
01/05:00pm 11.6 W 12 21 1009.2 - 0.0 - - - - - - -
01/04:30pm 11.9 W 16 29 1007.8 - 0.0 - - - - - - -
01/04:00pm 12.7 W 18 29 1007.5 - 0.0 - - - - - - -
01/03:30pm 12.7 W 15 27 1006.5 - 0.0 - - - - - - -
01/03:00pm 13.1 W 18 31 1006.4 - 0.0 - - - - - - -
01/02:31pm 13.5 W 19 29 1005.9 - 0.0 - - - - - - -
01/02:30pm 13.4 W 20 29 1005.8 - 0.0 - - - - - - -
01/02:00pm 13.5 W 19 31 1005.4 - 0.0 - - - - - - -
01/01:30pm 13.3 W 19 29 1005.2 - 0.0 - - - - - - -
01/01:00pm 13.3 WNW 16 27 1005.3 - 0.0 - - - - - - -
01/12:30pm 13.2 WNW 17 27 1004.6 - 0.0 - - - - - - -
01/12:05pm 13.3 WNW 16 26 1005.1 - 0.0 - - - - - - -
01/12:00pm 13.3 WNW 16 23 1005.6 - 0.0 - - - - - - -
01/11:34am 13.2 WNW 16 26 1006.3 - 0.0 - - - - - - -
01/11:30am 13.1 WNW 16 25 1006.3 - 0.0 - - - - - - -
01/11:00am 12.9 W 16 26 1006.8 - 0.0 - - - - - - -
01/10:41am 13.1 WNW 15 25 1006.9 - 0.0 - - - - - - -
01/10:30am 13.0 W 15 23 1007.1 - 0.0 - - - - - - -
01/10:00am 12.7 W 15 22 1007.1 - 0.0 - - - - - - -
01/09:30am 12.6 W 13 21 1007.2 - 0.0 - - - - - - -
01/09:00am 12.5 WNW 13 22 1007.0 - 0.0 - - - - - - -
01/08:30am 13.2 WNW 12 19 1006.6 - 0.0 - - - - - - -
01/08:00am 13.1 NW 7 9 1006.7 - 0.0 - - - - - - -
01/07:30am 13.0 W 12 19 1006.2 - 0.0 - - - - - - -
01/07:00am 12.8 WNW 10 16 1006.0 - 0.0 - - - - - - -
01/06:30am 13.2 NW 11 17 1005.4 - 0.0 - - - - - - -
01/06:00am 13.9 NW 10 17 1004.6 - 0.0 - - - - - - -
01/05:30am 14.7 WNW 12 19 1004.3 - 0.0 - - - - - - -
01/05:00am 15.2 WNW 12 21 1003.5 - 0.0 - - - - - - -
01/04:30am 16.1 WNW 16 23 1003.1 - 0.0 - - - - - - -
01/04:03am 17.7 WNW 15 25 1002.6 - 0.0 - - - - - - -
01/04:00am 17.8 WNW 15 21 1002.5 - 0.0 - - - - - - -
01/03:30am 18.8 WNW 10 17 1002.5 - 0.0 - - - - - - -
01/03:00am 19.0 NW 11 18 1002.4 - 0.0 - - - - - - -
01/02:30am 18.7 NNW 11 18 1002.1 - 0.0 - - - - - - -
01/02:00am 19.0 NNW 12 18 1002.1 - 0.0 - - - - - - -
01/01:30am 19.5 NNW 12 23 1002.1 - 0.0 - - - - - - -
01/01:00am 19.4 NNW 13 23 1002.3 - 0.0 - - - - - - -
01/12:30am 19.6 NNW 11 18 1002.7 - 0.0 - - - - - - -
01/12:00am 19.4 NNW 14 23 1003.2 - 0.0 - - - - - - -
 
Date/Time
EST
Temp

°C
Wind Pressure Rain
since 9am
mm
Weather Cloud Vis
km
Sea
Height
m
Swell
Dir
 
Speed
knots
Gust
knots
hPa Trend Height
m
Period
s
Dir
31/11:30pm 19.7 NNW 13 24 1003.5 - 0.0 - - - - - - -
31/11:00pm 19.5 NNW 8 13 1003.9 - 0.0 - - - - - - -
31/10:30pm 18.4 N 8 13 1004.2 - 0.0 - - - - - - -
31/10:00pm 19.0 NNW 9 16 1004.1 - 0.0 - - - - - - -
31/09:30pm 18.9 NNW 10 19 1004.0 - 0.0 - - - - - - -
31/09:00pm 18.7 N 8 12 1003.7 - 0.0 - - - - - - -
31/08:30pm 18.7 N 10 15 1003.5 - 0.0 - - - - - - -
31/08:00pm 18.6 N 12 19 1003.2 - 0.0 - - - - - - -
31/07:30pm 19.3 N 9 15 1003.2 - 0.0 - - - - - - -
31/07:00pm 19.5 N 8 13 1003.5 - 0.0 - - - - - - -
31/06:30pm 20.3 NNW 7 11 1003.6 - 0.0 - - - - - - -
31/06:00pm 20.5 NNW 13 23 1003.4 - 0.0 - - - - - - -
31/05:30pm 20.9 NNW 14 23 1003.3 - 0.0 - - - - - - -
31/05:00pm 21.2 NNW 13 19 1003.2 - 0.0 - - - - - - -
31/04:30pm 21.4 NNW 13 23 1003.5 - 0.0 - - - - - - -
31/04:00pm 22.2 NNW 12 23 1003.4 - 0.0 - - - - - - -
31/03:30pm 22.5 NNW 18 35 1003.5 - 0.0 - - - - - - -
31/03:16pm 23.1 NNW 15 26 1004.1 - 0.0 - - - - - - -
31/03:00pm 22.5 NNW 15 24 1004.0 - 0.0 - - - - - - -
31/02:30pm 22.7 NW 15 23 1004.5 - 0.0 - - - - - - -
31/02:00pm 22.9 NW 15 22 1004.9 - 0.0 - - - - - - -
31/01:30pm 22.7 NW 15 23 1005.4 - 0.0 - - - - - - -
31/01:00pm 22.8 NW 15 28 1006.1 - 0.0 - - - - - - -
31/12:34pm 22.4 NNW 15 25 1006.8 - 0.0 - - - - - - -
31/12:30pm 22.4 NNW 14 21 1006.7 - 0.0 - - - - - - -
31/12:00pm 22.0 NNW 13 19 1007.9 - 0.0 - - - - - - -
31/11:30am 21.8 NNW 13 21 1008.9 - 0.0 - - - - - - -
31/11:00am 21.1 NNW 14 22 1009.6 - 0.0 - - - - - - -
31/10:30am 20.2 NNW 15 26 1010.3 - 0.0 - - - - - - -
31/10:28am 20.2 NNW 15 26 1010.3 - 0.0 - - - - - - -
31/10:00am 19.6 NNW 13 23 1010.8 - 0.0 - - - - - - -
31/09:30am 19.2 NNW 11 16 1011.4 - 0.0 - - - - - - -
31/09:00am 18.2 N 9 14 1011.8 - 0.0 - - - - - - -
31/08:30am 17.6 N 8 12 1012.1 - 0.0 - - - - - - -
31/08:00am 17.1 NNW 8 12 1012.2 - 0.0 - - - - - - -
31/07:30am 16.5 NNW 8 14 1012.1 - 0.0 - - - - - - -
31/07:00am 16.2 NW 11 15 1011.9 - 0.0 - - - - - - -
31/06:35am 16.5 WNW 17 27 1011.7 - 0.0 - - - - - - -
31/06:30am 16.6 WNW 20 28 1011.4 - 0.0 - - - - - - -
31/06:00am 17.0 WNW 16 26 1010.1 - 0.0 - - - - - - -
31/05:57am 17.0 NW 15 26 1010.1 - 0.0 - - - - - - -
31/05:53am 17.0 NW 15 23 1010.2 - 0.0 - - - - - - -
31/05:30am 16.3 NNW 11 13 1011.4 - 0.0 - - - - - - -
31/05:00am 16.8 WNW 16 28 1011.0 - 0.0 - - - - - - -
31/04:58am 16.9 WNW 15 28 1010.9 - 0.0 - - - - - - -
31/04:30am 16.4 NW 13 21 1011.7 - 0.0 - - - - - - -
31/04:00am 16.9 WNW 10 17 1011.7 - 0.0 - - - - - - -
31/03:30am 16.9 WNW 14 22 1011.8 - 0.0 - - - - - - -
31/03:19am 17.0 WNW 15 23 1011.8 - 0.0 - - - - - - -
31/03:00am 17.2 N 5 8 1012.3 - 0.0 - - - - - - -
31/02:30am 16.3 NW 7 13 1012.9 - 0.0 - - - - - - -
31/02:00am 16.2 NNW 7 9 1013.1 - 0.0 - - - - - - -
31/01:30am 15.5 N 6 8 1013.3 - 0.0 - - - - - - -
31/01:00am 16.0 NNW 9 14 1013.6 - 0.0 - - - - - - -
31/12:30am 15.3 N 7 11 1013.7 - 0.0 - - - - - - -
31/12:00am 15.5 N 7 9 1014.1 - 0.0 - - - - - - -
 
Date/Time
EST
Temp

°C
Wind Pressure Rain
since 9am
mm
Weather Cloud Vis
km
Sea
Height
m
Swell
Dir
 
Speed
knots
Gust
knots
hPa Trend Height
m
Period
s
Dir
30/11:30pm 15.8 N 8 12 1014.3 - 0.0 - - - - - - -
30/11:00pm 16.1 N 8 12 1014.6 - 0.0 - - - - - - -
30/10:30pm 16.0 NNW 9 13 1014.8 - 0.0 - - - - - - -
30/10:00pm 16.1 NNW 8 12 1015.0 - 0.0 - - - - - - -
30/09:30pm 15.8 NNW 6 8 1015.1 - 0.0 - - - - - - -
30/09:00pm 16.0 N 6 7 1015.3 - 0.0 - - - - - - -
30/08:30pm 16.9 NW 7 9 1015.2 - 0.0 - - - - - - -
30/08:00pm 16.6 NNW 6 11 1015.3 - 0.0 - - - - - - -
30/07:30pm 17.2 NW 7 12 1015.4 - 0.0 - - - - - - -
30/07:00pm 17.0 NW 8 12 1015.3 - 0.0 - - - - - - -
30/06:30pm 17.2 WNW 6 8 1015.3 - 0.0 - - - - - - -
30/06:00pm 17.7 WNW 7 13 1014.8 - 0.0 - - - - - - -
30/05:30pm 17.8 WNW 9 13 1014.5 - 0.0 - - - - - - -
30/05:00pm 18.3 WNW 8 17 1014.1 - 0.0 - - - - - - -
30/04:30pm 18.4 WNW 8 13 1013.6 - 0.0 - - - - - - -
30/04:00pm 18.8 WNW 10 21 1013.7 - 0.0 - - - - - - -
30/03:30pm 18.9 WNW 12 22 1013.7 - 0.0 - - - - - - -
30/03:00pm 19.2 WNW 13 22 1013.5 - 0.0 - - - - - - -

Other Formats:

Comma delimited format used in spreadsheet applications
http://www.bom.gov.au/fwo/IDN60701/IDN60701.95940.axf

JavaScript Object Notation format (JSON) in row-major order
http://www.bom.gov.au/fwo/IDN60701/IDN60701.95940.json